createdAt,value
2022-10-17T00:01:25.240Z,64.42
2022-10-17T00:03:54.165Z,64.08
2022-10-17T00:06:22.990Z,62.98
2022-10-17T00:08:51.813Z,64.65
2022-10-17T00:11:23.259Z,64.05
2022-10-17T00:13:55.334Z,65.40
2022-10-17T00:16:32.527Z,65.82
2022-10-17T00:19:02.003Z,65.08
2022-10-17T00:21:30.865Z,65.63
2022-10-17T00:24:00.926Z,65.77
2022-10-17T00:26:30.292Z,67.56
2022-10-17T00:28:59.280Z,69.30
2022-10-17T00:31:29.645Z,67.67
2022-10-17T00:33:58.427Z,68.40
2022-10-17T00:36:28.264Z,68.31
2022-10-17T00:38:59.280Z,66.99
2022-10-17T00:41:30.668Z,67.73
2022-10-17T00:44:02.041Z,67.12
2022-10-17T00:46:33.809Z,68.56
2022-10-17T00:49:09.551Z,67.91
2022-10-17T00:51:43.040Z,68.91
2022-10-17T00:54:14.075Z,67.63
2022-10-17T00:56:43.460Z,67.49
2022-10-17T00:59:14.768Z,69.96
2022-10-17T01:01:52.624Z,68.79
2022-10-17T01:04:22.060Z,68.26
2022-10-17T01:06:51.274Z,69.09
2022-10-17T01:09:20.225Z,69.16
2022-10-17T01:11:56.296Z,68.90
2022-10-17T01:14:33.823Z,67.70
2022-10-17T01:17:14.449Z,68.82
2022-10-17T01:20:00.563Z,67.17
2022-10-17T01:22:38.915Z,67.46
2022-10-17T01:25:25.165Z,67.19
2022-10-17T01:28:10.674Z,69.31
2022-10-17T01:31:00.757Z,69.11
2022-10-17T01:33:45.768Z,68.29
2022-10-17T01:36:26.189Z,67.67
2022-10-17T01:39:00.940Z,68.29
2022-10-17T01:41:38.730Z,68.45
2022-10-17T01:44:14.591Z,68.99
2022-10-17T01:46:47.849Z,68.29
2022-10-17T01:49:20.894Z,100.00
2022-10-17T01:51:53.567Z,100.00
2022-10-17T01:54:26.203Z,67.87
2022-10-17T01:56:59.974Z,68.11
2022-10-17T01:59:38.528Z,67.89
2022-10-17T02:02:10.717Z,67.74
2022-10-17T02:04:39.686Z,67.69
2022-10-17T02:07:09.358Z,66.11
2022-10-17T02:09:39.843Z,66.29
2022-10-17T02:12:29.260Z,66.79
2022-10-17T02:15:11.763Z,66.55
2022-10-17T02:17:49.276Z,67.14
2022-10-17T02:20:25.359Z,67.28
2022-10-17T02:23:00.194Z,67.68
2022-10-17T02:25:41.583Z,67.29
2022-10-17T02:28:21.922Z,67.89
2022-10-17T02:30:55.540Z,68.31
2022-10-17T02:33:29.699Z,68.92
2022-10-17T02:36:03.198Z,68.53
2022-10-17T02:38:33.588Z,68.30
2022-10-17T02:41:05.193Z,68.89
2022-10-17T02:43:35.261Z,68.06
2022-10-17T02:46:04.657Z,68.31
2022-10-17T02:48:39.701Z,69.28
2022-10-17T02:51:18.142Z,67.96
2022-10-17T02:53:54.775Z,69.85
2022-10-17T02:56:25.870Z,69.09
2022-10-17T02:58:58.802Z,69.81
2022-10-17T03:01:28.624Z,68.40
2022-10-17T03:04:08.394Z,69.01
2022-10-17T03:06:37.364Z,69.62
2022-10-17T03:09:06.712Z,68.79
2022-10-17T03:11:35.675Z,67.95
2022-10-17T03:14:04.553Z,67.99
2022-10-17T03:16:34.065Z,67.11
2022-10-17T03:19:03.739Z,67.99
2022-10-17T03:21:36.470Z,68.88
2022-10-17T03:24:06.083Z,70.46
2022-10-17T03:26:34.998Z,69.08
2022-10-17T03:29:05.107Z,69.44
2022-10-17T03:31:35.711Z,68.69
2022-10-17T03:34:05.537Z,69.23
2022-10-17T03:36:35.911Z,68.40
2022-10-17T03:39:05.532Z,68.53
2022-10-17T03:41:35.442Z,69.86
2022-10-17T03:44:04.515Z,70.29
2022-10-17T03:46:33.642Z,67.99
2022-10-17T03:49:03.287Z,70.38
2022-10-17T03:51:35.695Z,71.33
2022-10-17T03:54:09.190Z,71.02
2022-10-17T03:56:38.457Z,72.43
2022-10-17T03:59:14.047Z,71.77
2022-10-17T04:01:44.904Z,72.03
2022-10-17T04:04:15.012Z,71.28
2022-10-17T04:06:45.330Z,71.48
2022-10-17T04:09:14.350Z,72.57
2022-10-17T04:11:55.894Z,72.01
2022-10-17T04:14:25.399Z,73.35
2022-10-17T04:16:54.667Z,73.74
2022-10-17T04:19:23.943Z,72.57
2022-10-17T04:21:54.353Z,72.25
2022-10-17T04:24:23.750Z,72.41
2022-10-17T04:26:59.271Z,74.74
2022-10-17T04:29:31.288Z,74.32
2022-10-17T04:32:07.883Z,73.24
2022-10-17T04:34:43.099Z,75.95
2022-10-17T04:37:13.708Z,75.18
2022-10-17T04:39:42.676Z,74.10
2022-10-17T04:42:11.785Z,73.17
2022-10-17T04:44:41.307Z,72.39
2022-10-17T04:47:11.143Z,72.44
2022-10-17T04:52:17.954Z,74.39
2022-10-17T04:54:50.253Z,73.39
2022-10-17T04:57:20.673Z,72.98
2022-10-17T04:59:59.432Z,72.15
2022-10-17T05:02:47.596Z,71.54
2022-10-17T05:05:17.267Z,71.86
2022-10-17T05:07:49.858Z,72.35
2022-10-17T05:10:21.320Z,74.85
2022-10-17T05:12:53.109Z,75.41
2022-10-17T05:15:25.265Z,72.51
2022-10-17T05:17:56.986Z,71.75
2022-10-17T05:20:27.702Z,70.02
2022-10-17T05:23:00.162Z,71.16
2022-10-17T05:25:34.868Z,70.07
2022-10-17T05:28:03.768Z,69.75
2022-10-17T05:30:35.279Z,66.97
2022-10-17T05:33:08.062Z,67.83
2022-10-17T05:35:37.532Z,65.52
2022-10-17T05:38:09.119Z,64.59
2022-10-17T05:40:39.649Z,63.41
2022-10-17T05:43:08.567Z,62.18
2022-10-17T05:45:37.918Z,61.15
2022-10-17T05:48:10.125Z,59.50
2022-10-17T05:50:39.067Z,60.59
2022-10-17T05:53:17.847Z,63.02
2022-10-17T05:55:57.314Z,65.08
2022-10-17T06:01:30.409Z,58.87
2022-10-17T06:03:59.916Z,56.07
2022-10-17T06:06:29.605Z,54.61
2022-10-17T06:08:59.885Z,52.61
2022-10-17T06:11:48.517Z,51.02
2022-10-17T06:14:18.401Z,52.15
2022-10-17T06:16:52.011Z,57.02
2022-10-17T06:19:20.908Z,57.11
2022-10-17T06:21:49.872Z,57.85
2022-10-17T06:24:24.770Z,56.30
2022-10-17T06:26:55.086Z,52.47
2022-10-17T06:29:24.503Z,50.74
2022-10-17T06:31:54.546Z,52.57
2022-10-17T06:34:23.726Z,55.73
2022-10-17T06:36:52.687Z,57.20
2022-10-17T06:39:22.638Z,57.23
2022-10-17T06:42:05.370Z,52.72
2022-10-17T06:45:00.745Z,49.77
2022-10-17T06:48:05.734Z,49.17
2022-10-17T06:51:09.854Z,47.02
2022-10-17T06:53:47.927Z,46.00
2022-10-17T06:56:37.279Z,45.18
2022-10-17T06:59:30.958Z,43.88
2022-10-17T07:02:10.752Z,41.95
2022-10-17T07:04:40.406Z,41.45
2022-10-17T07:07:09.548Z,39.42
2022-10-17T07:09:38.962Z,39.30
2022-10-17T07:12:08.596Z,38.19
2022-10-17T07:14:39.089Z,37.37
2022-10-17T07:17:08.218Z,37.20
2022-10-17T07:19:37.105Z,36.25
2022-10-17T07:22:06.110Z,37.55
2022-10-17T07:24:35.819Z,37.54
2022-10-17T07:27:31.726Z,36.22
2022-10-17T07:30:02.146Z,37.48
2022-10-17T07:32:37.446Z,41.37
2022-10-17T07:35:07.780Z,42.31
2022-10-17T07:37:37.951Z,38.46
2022-10-17T07:40:09.569Z,37.13
2022-10-17T07:45:15.933Z,43.39
2022-10-17T07:47:45.828Z,43.86
2022-10-17T07:50:17.467Z,44.35
2022-10-17T07:52:46.469Z,45.07
2022-10-17T07:55:15.559Z,45.16
2022-10-17T07:57:44.510Z,42.01
2022-10-17T08:00:15.715Z,43.54
2022-10-17T08:02:44.578Z,40.69
2022-10-17T08:05:13.401Z,39.18
2022-10-17T08:07:42.259Z,38.73
2022-10-17T08:10:12.960Z,41.82
2022-10-17T08:12:42.028Z,44.48
2022-10-17T08:15:11.956Z,43.04
2022-10-17T08:17:42.149Z,44.47
2022-10-17T08:20:12.430Z,44.62
2022-10-17T08:22:41.310Z,42.72
2022-10-17T08:25:11.005Z,40.29
2022-10-17T08:27:39.839Z,40.22
2022-10-17T08:30:10.149Z,40.68
2022-10-17T08:32:39.010Z,41.02
2022-10-17T08:35:10.444Z,39.41
2022-10-17T08:37:39.259Z,39.18
2022-10-17T08:40:11.224Z,37.22
2022-10-17T08:42:56.430Z,38.23
2022-10-17T08:45:30.284Z,33.94
2022-10-17T08:48:02.082Z,33.02
2022-10-17T08:50:38.374Z,30.35
2022-10-17T08:53:15.882Z,29.70
2022-10-17T08:55:48.187Z,33.59
2022-10-17T08:58:21.249Z,31.97
2022-10-17T09:00:59.291Z,34.25
2022-10-17T09:03:46.763Z,34.96
2022-10-17T09:06:29.802Z,34.12
2022-10-17T09:09:19.660Z,35.68
2022-10-17T09:12:04.061Z,34.12
2022-10-17T09:14:55.463Z,33.65
2022-10-17T09:17:35.993Z,33.76
2022-10-17T09:20:11.435Z,32.62
2022-10-17T09:22:47.835Z,31.61
2022-10-17T09:25:20.210Z,30.54
2022-10-17T09:27:52.713Z,29.42
2022-10-17T09:30:45.031Z,28.64
2022-10-17T09:33:34.416Z,26.92
2022-10-17T09:36:10.149Z,26.49
2022-10-17T09:38:43.647Z,26.29
2022-10-17T09:41:43.501Z,26.09
2022-10-17T09:44:19.127Z,25.20
2022-10-17T09:47:03.702Z,23.53
2022-10-17T09:49:34.956Z,24.22
2022-10-17T09:52:06.739Z,24.67
2022-10-17T09:54:44.104Z,24.52
2022-10-17T09:57:15.123Z,23.89
2022-10-17T09:59:46.419Z,22.66
2022-10-17T10:02:22.346Z,22.39
2022-10-17T10:05:04.534Z,22.15
2022-10-17T10:07:36.517Z,22.47
2022-10-17T10:10:23.757Z,21.18
2022-10-17T10:13:05.498Z,21.65
2022-10-17T10:15:37.873Z,21.35
2022-10-17T10:18:33.108Z,22.85
2022-10-17T10:21:09.591Z,25.22
2022-10-17T10:23:40.626Z,22.08
2022-10-17T10:26:25.802Z,22.20
2022-10-17T10:28:59.228Z,22.89
2022-10-17T10:34:24.211Z,22.23
2022-10-17T10:37:03.331Z,20.29
2022-10-17T10:39:42.016Z,18.92
2022-10-17T10:42:27.604Z,21.69
2022-10-17T10:45:03.293Z,23.02
2022-10-17T10:47:33.752Z,22.99
2022-10-17T10:50:25.533Z,21.98
2022-10-17T10:53:17.831Z,21.21
2022-10-17T10:55:51.969Z,22.31
2022-10-17T10:58:34.729Z,21.78
2022-10-17T11:01:13.327Z,21.90
2022-10-17T11:03:51.277Z,23.06
2022-10-17T11:06:24.983Z,24.57
2022-10-17T11:09:06.662Z,24.72
2022-10-17T11:11:40.638Z,23.91
2022-10-17T11:14:16.531Z,22.88
2022-10-17T11:16:48.917Z,21.67
2022-10-17T11:19:38.301Z,22.21
2022-10-17T11:22:16.053Z,22.08
2022-10-17T11:24:57.029Z,23.41
2022-10-17T11:27:27.131Z,23.26
2022-10-17T11:29:58.179Z,21.76
2022-10-17T11:32:31.653Z,21.87
2022-10-17T11:35:04.798Z,23.23
2022-10-17T11:37:40.636Z,23.26
2022-10-17T11:40:19.265Z,23.26
2022-10-17T11:42:58.324Z,23.50
2022-10-17T11:45:32.077Z,22.54
2022-10-17T11:48:05.948Z,21.20
2022-10-17T11:53:30.008Z,21.63
2022-10-17T11:56:01.986Z,23.76
2022-10-17T11:58:40.727Z,23.18
2022-10-17T12:01:22.135Z,23.07
2022-10-17T12:04:13.992Z,22.94
2022-10-17T12:06:56.302Z,22.38
2022-10-17T12:09:32.662Z,22.29
2022-10-17T12:12:03.371Z,22.63
2022-10-17T12:14:45.135Z,22.34
2022-10-17T12:17:32.606Z,21.49
2022-10-17T12:20:32.897Z,21.53
2022-10-17T12:23:21.208Z,20.64
2022-10-17T12:25:52.809Z,22.96
2022-10-17T12:28:28.659Z,23.76
2022-10-17T12:31:00.762Z,23.54
2022-10-17T12:33:38.356Z,23.50
2022-10-17T12:36:46.154Z,23.10
2022-10-17T12:39:53.945Z,23.92
2022-10-17T12:42:48.667Z,24.70
2022-10-17T12:45:46.194Z,22.79
2022-10-17T12:48:35.328Z,23.89
2022-10-17T12:54:00.216Z,23.70
2022-10-17T12:56:37.025Z,23.04
2022-10-17T12:59:14.304Z,26.47
2022-10-17T13:01:46.540Z,22.77
2022-10-17T13:04:16.383Z,22.91
2022-10-17T13:06:54.033Z,23.43
2022-10-17T13:09:28.445Z,22.85
2022-10-17T13:12:00.060Z,26.64
2022-10-17T13:14:31.081Z,26.38
2022-10-17T13:17:01.967Z,25.86
2022-10-17T13:19:32.865Z,25.00
2022-10-17T13:22:07.173Z,25.47
2022-10-17T13:24:38.026Z,26.11
2022-10-17T13:27:08.707Z,26.24
2022-10-17T13:29:45.773Z,25.91
2022-10-17T13:32:14.842Z,25.92
2022-10-17T13:34:43.748Z,25.99
2022-10-17T13:37:16.787Z,26.76
2022-10-17T13:40:00.359Z,26.43
2022-10-17T13:42:40.428Z,26.63
2022-10-17T13:45:19.439Z,27.34
2022-10-17T13:47:48.584Z,27.80
2022-10-17T13:50:43.055Z,27.74
2022-10-17T13:53:22.387Z,26.63
2022-10-17T13:56:16.139Z,28.03
2022-10-17T13:58:50.710Z,27.34
2022-10-17T14:01:21.665Z,27.92
2022-10-17T14:04:02.221Z,27.20
2022-10-17T14:06:45.092Z,27.25
2022-10-17T14:09:23.447Z,27.81
2022-10-17T14:12:02.021Z,28.02
2022-10-17T14:14:46.130Z,28.91
2022-10-17T14:17:24.904Z,29.19
2022-10-17T14:20:14.119Z,28.93
2022-10-17T14:22:47.272Z,29.39
2022-10-17T14:25:35.320Z,28.63
2022-10-17T14:28:15.156Z,28.92
2022-10-17T14:30:56.187Z,28.70
2022-10-17T14:33:29.647Z,28.06
2022-10-17T14:36:00.783Z,28.72
2022-10-17T14:38:31.048Z,29.05
2022-10-17T14:41:37.425Z,28.91
2022-10-17T14:43:56.028Z,29.21
2022-10-17T14:46:25.679Z,30.14
2022-10-17T14:48:57.225Z,30.39
2022-10-17T14:51:26.147Z,31.15
2022-10-17T14:54:07.139Z,31.17
2022-10-17T14:56:40.961Z,31.18
2022-10-17T14:59:13.804Z,31.17
2022-10-17T15:01:47.211Z,31.81
2022-10-17T15:04:16.177Z,32.68
2022-10-17T15:06:45.745Z,32.14
2022-10-17T15:09:14.557Z,32.22
2022-10-17T15:11:44.721Z,31.95
2022-10-17T15:14:13.513Z,32.39
2022-10-17T15:16:42.291Z,31.89
2022-10-17T15:19:13.564Z,32.05
2022-10-17T15:21:46.264Z,32.78
2022-10-17T15:24:16.184Z,32.26
2022-10-17T15:26:46.561Z,32.09
2022-10-17T15:29:16.756Z,31.98
2022-10-17T15:31:45.562Z,32.29
2022-10-17T15:34:14.416Z,33.21
2022-10-17T15:36:49.634Z,33.34
2022-10-17T15:39:18.439Z,32.96
2022-10-17T15:41:49.366Z,33.75
2022-10-17T15:44:18.564Z,33.86
2022-10-17T15:46:47.601Z,33.60
2022-10-17T15:49:19.778Z,34.14
2022-10-17T15:51:54.365Z,33.35
2022-10-17T15:54:24.118Z,33.50
2022-10-17T15:56:58.351Z,33.88
2022-10-17T15:59:33.362Z,34.08
2022-10-17T16:02:02.404Z,33.72
2022-10-17T16:04:34.740Z,35.09
2022-10-17T16:07:03.749Z,36.13
2022-10-17T16:09:33.429Z,37.33
2022-10-17T16:12:04.274Z,37.85
2022-10-17T16:14:33.384Z,38.07
2022-10-17T16:17:02.237Z,37.87
2022-10-17T16:19:31.138Z,37.79
2022-10-17T16:22:04.283Z,37.89
2022-10-17T16:24:33.809Z,37.09
2022-10-17T16:27:04.004Z,37.57
2022-10-17T16:29:32.861Z,37.98
2022-10-17T16:32:01.985Z,38.47
2022-10-17T16:34:32.403Z,39.27
2022-10-17T16:37:01.969Z,39.15
2022-10-17T16:39:30.917Z,39.65
2022-10-17T16:41:59.775Z,39.21
2022-10-17T16:44:30.010Z,39.41
2022-10-17T16:46:58.837Z,39.28
2022-10-17T16:49:27.775Z,39.68
2022-10-17T16:51:56.663Z,40.33
2022-10-17T16:54:25.540Z,41.03
2022-10-17T16:56:54.346Z,40.81
2022-10-17T16:59:23.483Z,41.31
2022-10-17T17:01:53.761Z,40.68
2022-10-17T17:04:23.419Z,40.47
2022-10-17T17:06:52.329Z,41.03
2022-10-17T17:09:21.175Z,42.15
2022-10-17T17:11:50.136Z,42.43
2022-10-17T17:14:19.026Z,42.92
2022-10-17T17:16:47.906Z,43.13
2022-10-17T17:19:18.137Z,42.70
2022-10-17T17:21:50.965Z,42.41
2022-10-17T17:24:21.101Z,41.54
2022-10-17T17:26:53.100Z,41.56
2022-10-17T17:29:22.163Z,41.50
2022-10-17T17:31:51.838Z,41.85
2022-10-17T17:34:22.069Z,43.55
2022-10-17T17:36:51.076Z,43.16
2022-10-17T17:39:19.964Z,42.94
2022-10-17T17:41:48.781Z,43.12
2022-10-17T17:44:17.687Z,43.63
2022-10-17T17:46:46.985Z,43.42
2022-10-17T17:49:15.916Z,44.13
2022-10-17T17:51:46.767Z,44.91
2022-10-17T17:54:16.071Z,44.69
2022-10-17T17:56:44.904Z,44.27
2022-10-17T17:59:14.606Z,45.36
2022-10-17T18:01:44.530Z,46.06
2022-10-17T18:04:13.978Z,45.67
2022-10-17T18:06:43.087Z,45.45
2022-10-17T18:09:13.292Z,45.26
2022-10-17T18:11:42.223Z,46.42
2022-10-17T18:14:13.156Z,46.16
2022-10-17T18:16:42.602Z,45.27
2022-10-17T18:19:12.980Z,45.75
2022-10-17T18:21:41.900Z,46.58
2022-10-17T18:24:11.198Z,46.82
2022-10-17T18:26:41.513Z,47.25
2022-10-17T18:29:11.767Z,47.30
2022-10-17T18:31:40.890Z,47.34
2022-10-17T18:34:09.731Z,47.94
2022-10-17T18:36:38.888Z,47.50
2022-10-17T18:39:07.804Z,48.43
2022-10-17T18:41:36.709Z,48.67
2022-10-17T18:44:08.981Z,48.71
2022-10-17T18:46:40.996Z,49.05
2022-10-17T18:49:10.426Z,48.99
2022-10-17T18:51:39.333Z,49.21
2022-10-17T18:54:12.359Z,49.96
2022-10-17T18:56:41.736Z,50.03
2022-10-17T18:59:11.979Z,49.73
2022-10-17T19:01:40.932Z,50.10
2022-10-17T19:04:09.965Z,49.95
2022-10-17T19:06:39.339Z,49.62
2022-10-17T19:09:11.538Z,49.47
2022-10-17T19:11:40.739Z,49.18
2022-10-17T19:14:13.991Z,48.95
2022-10-17T19:16:44.468Z,50.09
2022-10-17T19:19:15.149Z,49.94
2022-10-17T19:21:44.483Z,50.50
2022-10-17T19:24:15.849Z,50.52
2022-10-17T19:26:47.453Z,49.98
2022-10-17T19:29:19.115Z,49.98
2022-10-17T19:31:48.899Z,50.03
2022-10-17T19:34:18.748Z,50.56
2022-10-17T19:36:47.654Z,50.67
2022-10-17T19:39:19.479Z,50.50
2022-10-17T19:41:49.232Z,51.55
2022-10-17T19:44:19.619Z,52.18
2022-10-17T19:46:49.399Z,52.04
2022-10-17T19:49:19.029Z,52.74
2022-10-17T19:51:48.009Z,52.43
2022-10-17T19:54:18.711Z,52.68
2022-10-17T19:56:48.135Z,52.86
2022-10-17T19:59:18.145Z,53.27
2022-10-17T20:01:48.572Z,52.36
2022-10-17T20:04:17.485Z,52.49
2022-10-17T20:06:46.273Z,53.48
2022-10-17T20:09:17.091Z,54.16
2022-10-17T20:11:46.550Z,53.29
2022-10-17T20:14:15.433Z,53.28
2022-10-17T20:16:50.102Z,53.01
2022-10-17T20:19:21.126Z,53.66
2022-10-17T20:21:50.294Z,53.11
2022-10-17T20:24:19.130Z,53.32
2022-10-17T20:26:47.948Z,53.73
2022-10-17T20:29:18.575Z,54.31
2022-10-17T20:31:48.930Z,53.98
2022-10-17T20:34:20.312Z,53.91
2022-10-17T20:36:49.748Z,53.09
2022-10-17T20:39:20.830Z,53.40
2022-10-17T20:41:49.723Z,54.32
2022-10-17T20:44:18.579Z,54.79
2022-10-17T20:47:01.241Z,55.74
2022-10-17T20:49:33.713Z,55.64
2022-10-17T20:52:03.291Z,55.83
2022-10-17T20:54:32.731Z,55.97
2022-10-17T20:57:04.102Z,56.55
2022-10-17T20:59:36.124Z,55.64
2022-10-17T21:02:05.472Z,55.10
2022-10-17T21:04:50.983Z,56.06
2022-10-17T21:07:21.203Z,55.19
2022-10-17T21:09:50.029Z,55.56
2022-10-17T21:12:26.253Z,55.27
2022-10-17T21:15:00.448Z,56.05
2022-10-17T21:17:29.761Z,56.32
2022-10-17T21:19:59.983Z,55.68
2022-10-17T21:22:29.895Z,55.08
2022-10-17T21:24:59.019Z,56.27
2022-10-17T21:27:28.058Z,56.79
2022-10-17T21:29:57.032Z,56.35
2022-10-17T21:32:40.285Z,55.51
2022-10-17T21:35:16.233Z,55.14
2022-10-17T21:37:45.048Z,56.32
2022-10-17T21:40:14.306Z,56.51
2022-10-17T21:42:43.178Z,56.50
2022-10-17T21:45:15.782Z,56.98
2022-10-17T21:48:12.316Z,58.61
2022-10-17T21:50:43.340Z,59.20
2022-10-17T21:53:12.144Z,59.86
2022-10-17T21:55:41.004Z,60.03
2022-10-17T21:58:10.236Z,60.20
2022-10-17T22:00:39.101Z,59.37
2022-10-17T22:03:09.613Z,60.36
2022-10-17T22:05:38.466Z,59.85
2022-10-17T22:08:08.836Z,59.60
2022-10-17T22:10:38.750Z,59.73
2022-10-17T22:13:07.663Z,59.41
2022-10-17T22:15:36.503Z,58.13
2022-10-17T22:18:05.458Z,56.32
2022-10-17T22:20:35.137Z,55.96
2022-10-17T22:23:03.998Z,57.26
2022-10-17T22:25:34.287Z,57.92
2022-10-17T22:28:03.346Z,57.88
2022-10-17T22:30:32.283Z,58.42
2022-10-17T22:33:01.121Z,58.07
2022-10-17T22:35:30.003Z,60.37
2022-10-17T22:37:58.808Z,60.82
2022-10-17T22:40:27.688Z,60.01
2022-10-17T22:42:58.070Z,60.44
2022-10-17T22:45:26.906Z,59.08
2022-10-17T22:47:55.890Z,59.92
2022-10-17T22:50:25.397Z,60.35
2022-10-17T22:52:54.220Z,60.38
2022-10-17T22:55:23.137Z,60.63
2022-10-17T22:57:51.970Z,61.08
2022-10-17T23:00:22.439Z,60.72
2022-10-17T23:02:54.728Z,60.20
2022-10-17T23:05:23.601Z,59.92
2022-10-17T23:07:52.417Z,60.60
2022-10-17T23:10:21.238Z,60.23
2022-10-17T23:12:50.044Z,60.69
2022-10-17T23:15:18.975Z,59.65
2022-10-17T23:17:49.199Z,60.04
2022-10-17T23:20:18.272Z,60.04
2022-10-17T23:22:47.142Z,60.21
2022-10-17T23:25:16.140Z,60.12
2022-10-17T23:27:45.544Z,60.86
2022-10-17T23:30:14.821Z,60.25
2022-10-17T23:32:43.819Z,60.62
2022-10-17T23:35:14.064Z,61.03
2022-10-17T23:37:43.066Z,61.06
2022-10-17T23:40:13.265Z,60.84
2022-10-17T23:42:42.102Z,62.05
2022-10-17T23:45:11.798Z,61.38
2022-10-17T23:47:40.885Z,61.39
2022-10-17T23:50:09.974Z,61.62
2022-10-17T23:52:40.317Z,62.15
2022-10-17T23:55:10.735Z,63.05
2022-10-17T23:57:39.535Z,63.59
